Current Conditions
Partly Cloudy
Conditions



Pressure
1017.92 (hPa) - 30.06 (inHG)
Visibility

10.0 (km) - 6.2 (miles)
   Temperature
21  °C
70°F
15  °C
Dewpoint
69  %
 Humidity
   Wind Speed
8  km/h
4  kts
5  mph
2.2  m/s
   Wind Direction
 130°
South East
   Airport Data
LEMD
Location Adolfo Suárez Madrid–Barajas 60 km (37.29 mi)
Metar :LEMD 200900Z 13004KT 090V170 9999 FEW025 SCT075 21/15 Q1018 NOSIG
Fri 20th September 11:00 am
   Raw Metar Info
Raw METAR is the most common format in the world for the transmission of observational weather data. It is highly standardized through the International Civil Aviation Organization (ICAO), which allows it to be understood throughout most of the world.
   API Info
Data Provided by
https://www.checkwx.com/weather/LEMD
   © Info
CSS/SVG/PHP scripts were developed by weather34.com for use in the weather34 template © 2015-2019

Guide Info provided by Metar-Wikipedia